Flight Track Log - Related Links

Times and Time Zones

All times are in EDT time to prevent confusion due to time zone crossing. See the VNR104 flight status page for this flight to view local times or setup timezone preferences in your user account.

Time Position Orientation Groundspeed Altitude Reporting Facility
EDT Latitude Longitude Course Direction KTS MPH feet Rate Location/Type
Fri 02:30:04 PM 35.4558 -99.3031 82° East 183 211 5,100  Level Kansas City Center
Fri 02:30:37 PM 35.4614 -99.2536 82° East 374 430 7,000 2,426 Climbing Fort Worth Center
Fri 02:31:38 PM 35.4686 -99.1900 82° East 257 296 8,900 1,700 Climbing Fort Worth Center
Fri 02:32:37 PM 35.4739 -99.1111 85° East 226 260 10,400 1,765 Climbing Fort Worth Center
Fri 02:33:37 PM 35.4814 -99.0247 84° East 233 268 12,400 1,950 Climbing Fort Worth Center
Fri 02:34:37 PM 35.4867 -98.9356 86° East 249 287 14,300 1,835 Climbing Fort Worth Center
Fri 02:35:38 PM 35.4961 -98.8439 83° East 259 298 16,100 1,750 Climbing Fort Worth Center
Fri 02:36:37 PM 35.5033 -98.7472 85° East 271 312 17,800 1,700 Climbing Fort Worth Center
Fri 02:37:38 PM 35.5106 -98.6503 85° East 276 318 19,500 1,650 Climbing Fort Worth Center
Fri 02:38:37 PM 35.5178 -98.5511 85° East 276 318 21,100 1,450 Climbing Fort Worth Center
Fri 02:39:38 PM 35.5269 -98.4567 83° East 276 318 22,400 1,438 Climbing Fort Worth Center
Fri 02:40:38 PM 35.5339 -98.3547 85° East 282 325 24,000 1,600 Climbing Fort Worth Center
Fri 02:41:38 PM 35.5411 -98.2528 85° East 293 337 25,600 1,605 Climbing Fort Worth Center
Fri 02:43:30 PM 35.5544 -98.0486 85° East 305 351 28,600 1,509 Climbing Kansas City Center
Fri 02:44:33 PM 35.5628 -97.9419 84° East 312 359 30,000 1,056 Climbing Kansas City Center
Fri 02:45:35 PM 35.5706 -97.8331 85° East 316 364 30,800 774 Climbing Kansas City Center
Fri 02:46:37 PM 35.5783 -97.7172 85° East 332 382 31,600 871 Climbing Kansas City Center
Fri 02:47:39 PM 35.5861 -97.5992 85° East 342 394 32,600 677 Climbing Kansas City Center
Fri 02:48:41 PM 35.5967 -97.4533 85° East 351 404 33,000 194 Climbing Kansas City Center
Fri 02:49:43 PM 35.6058 -97.3217 85° East 373 429 33,000  Level Kansas City Center
Fri 02:50:45 PM 35.6144 -97.1861 85° East 386 444 33,000  Level Kansas City Center
Fri 02:51:47 PM 35.6228 -97.0494 86° East 393 452 33,000  Level Kansas City Center
Fri 02:52:49 PM 35.6314 -96.9103 86° East 404 465 33,000  Level Kansas City Center
Fri 02:53:51 PM 35.6400 -96.7697 86° East 410 472 33,000  Level Kansas City Center
Fri 02:54:53 PM 35.6483 -96.6292 86° East 413 475 33,000  Level Kansas City Center
Fri 02:55:55 PM 35.6569 -96.4900 86° East 411 473 33,000  Level Kansas City Center
Fri 02:56:57 PM 35.6656 -96.3214 86° East 412 474 33,000  Level Kansas City Center
Fri 02:57:59 PM 35.6736 -96.1814 86° East 413 475 33,000  Level Kansas City Center
Fri 02:59:01 PM 35.6825 -96.0336 86° East 411 473 33,000  Level Kansas City Center
Fri 03:00:03 PM 35.6886 -95.8936 87° East 411 473 33,000  Level Kansas City Center
Fri 03:01:05 PM 35.6989 -95.7544 85° East 410 472 33,000  Level Kansas City Center
Fri 03:02:08 PM 35.7103 -95.6136 84° East 413 475 33,000  Level Kansas City Center
Fri 03:03:10 PM 35.7208 -95.4722 85° East 416 479 33,000  Level Kansas City Center
Fri 03:04:12 PM 35.7328 -95.3036 85° East 415 478 33,000  Level Kansas City Center
Fri 03:05:14 PM 35.7433 -95.1631 85° East 415 478 33,000  Level Kansas City Center
Fri 03:06:16 PM 35.7533 -95.0197 85° East 419 482 33,000  Level Kansas City Center
Fri 03:06:32 PM 35.7536 -94.9869 89° East 416 479 33,000  Level Memphis Center
Fri 03:07:32 PM 35.7631 -94.8467 85° East 416 479 33,000  Level Memphis Center
Fri 03:08:32 PM 35.7639 -94.7061 90° East 416 479 33,000  Level Memphis Center
Fri 03:09:32 PM 35.7625 -94.5628 91° East 416 479 33,000  Level Memphis Center
Fri 03:10:32 PM 35.7650 -94.4197 89° East 421 484 33,000  Level Memphis Center
Fri 03:11:32 PM 35.7675 -94.2767 89° East 421 484 33,000  Level Memphis Center
Fri 03:12:32 PM 35.7678 -94.1358 90° East 421 484 33,000  Level Memphis Center
Fri 03:13:32 PM 35.7722 -93.9878 88° East 421 484 33,000  Level Memphis Center
Fri 03:14:32 PM 35.7719 -93.8469 90° East 421 484 33,000  Level Memphis Center
Fri 03:15:32 PM 35.7739 -93.7039 89° East 421 484 33,000 50 Level Memphis Center
Fri 03:16:32 PM 35.7758 -93.5478 89° East 416 479 33,100 650 Climbing Memphis Center
Fri 03:17:32 PM 35.7750 -93.4119 90° East 411 473 34,300 950 Climbing Memphis Center
Fri 03:18:32 PM 35.7761 -93.2817 89° East 395 455 35,000 350 Climbing Memphis Center
Fri 03:19:32 PM 35.7772 -93.1461 89° East 389 448 35,000  Level Memphis Center
Fri 03:20:32 PM 35.7761 -93.0053 91° East 394 453 35,000  Level Memphis Center
Fri 03:21:32 PM 35.7769 -92.8647 90° East 400 460 35,000  Level Memphis Center
Fri 03:22:32 PM 35.7733 -92.7211 92° East 411 473 35,000  Level Memphis Center
Fri 03:23:32 PM 35.7761 -92.5756 89° East 416 479 35,000  Level Memphis Center
Fri 03:24:32 PM 35.7744 -92.4294 91° East 423 487 35,000  Level Memphis Center
Fri 03:25:32 PM 35.7728 -92.2811 91° East 423 487 35,000  Level Memphis Center
Fri 03:26:32 PM 35.7728 -92.1328 90° East 423 487 35,000  Level Memphis Center
Fri 03:27:32 PM 35.7686 -91.9842 92° East 423 487 35,000  Level Memphis Center
Fri 03:28:32 PM 35.7703 -91.8383 89° East 423 487 35,000  Level Memphis Center
Fri 03:29:32 PM 35.7678 -91.6900 91° East 423 487 35,000  Level Memphis Center
Fri 03:30:32 PM 35.7672 -91.5417 90° East 423 487 35,000  Level Memphis Center
Fri 03:31:32 PM 35.7581 -91.3956 94° East 423 487 35,000  Level Memphis Center
Fri 03:32:32 PM 35.7572 -91.2447 90° East 423 487 35,000  Level Memphis Center
Fri 03:33:32 PM 35.7539 -91.0989 92° East 423 487 35,000  Level Memphis Center
Fri 03:34:32 PM 35.7506 -90.9506 92° East 423 487 35,000  Level Memphis Center
Fri 03:35:32 PM 35.7492 -90.8019 91° East 423 487 35,000  Level Memphis Center
Fri 03:36:33 PM 35.7453 -90.6536 92° East 428 493 35,000  Level Memphis Center
Fri 03:37:32 PM 35.7436 -90.5003 91° East 433 498 35,000  Level Memphis Center
Fri 03:38:32 PM 35.7394 -90.3494 92° East 438 504 35,000  Level Memphis Center
Fri 03:39:32 PM 35.7372 -90.1983 91° East 438 504 35,000  Level Memphis Center
Fri 03:40:32 PM 35.7328 -90.0475 92° East 438 504 35,000  Level Memphis Center
Fri 03:41:32 PM 35.7303 -89.8992 91° East 438 504 35,000  Level Memphis Center
Fri 03:42:32 PM 35.7233 -89.7483 93° East 438 504 35,000  Level Memphis Center
Fri 03:43:32 PM 35.7206 -89.6000 91° East 438 504 35,000  Level Memphis Center
Fri 03:44:32 PM 35.7172 -89.4467 91° East 438 504 35,000  Level Memphis Center
Fri 03:45:32 PM 35.7119 -89.2961 92° East 438 504 35,000 -300 Level Memphis Center
Fri 03:46:32 PM 35.7083 -89.1425 92° East 438 504 34,400 -600 Descending Memphis Center
Fri 03:47:32 PM 35.7028 -88.9919 93° East 438 504 33,800 -650 Descending Memphis Center
Fri 03:48:32 PM 35.7011 -88.8514 91° East 426 490 33,100 -700 Descending Memphis Center
Fri 03:49:32 PM 35.7056 -88.7208 88° East 398 458 32,400 -700 Descending Memphis Center
Fri 03:50:32 PM 35.7183 -88.5850 83° East 398 458 31,700 -650 Descending Memphis Center
Fri 03:51:32 PM 35.7331 -88.4442 83° East 398 458 31,100 -650 Descending Memphis Center
Fri 03:52:32 PM 35.7453 -88.3031 84° East 403 464 30,400 -700 Descending Memphis Center
Fri 03:53:32 PM 35.7575 -88.1622 84° East 409 471 29,700 -1,300 Descending Memphis Center
Fri 03:54:32 PM 35.7675 -88.0289 85° East 397 457 27,800 -2,000 Descending Memphis Center
Fri 03:55:32 PM 35.7778 -87.9056 84° East 410 472 25,700 -2,700 Descending Memphis Center
Fri 03:56:32 PM 35.7875 -87.7697 85° East 405 466 22,400 -3,300 Descending Memphis Center
Fri 03:57:32 PM 35.7975 -87.6492 84° East 376 433 19,100 -3,300 Descending Memphis Center
Fri 03:58:32 PM 35.8075 -87.5336 84° East 347 399 15,800 -3,250 Descending Memphis Center
Fri 03:59:32 PM 35.8425 -87.4353 66° East 320 368 12,600 -2,350 Descending Memphis Center
Fri 04:00:32 PM 35.8778 -87.3367 66° East 312 359 11,100 -1,350 Descending Memphis Center
Fri 04:01:32 PM 35.9131 -87.2406 66° East 306 352 9,900 -900 Descending Memphis Center
Fri 04:02:32 PM 35.9461 -87.1494 66° East 301 346 9,300 -1,100 Descending Memphis Center
Fri 04:03:32 PM 35.9853 -87.0556 63° Northeast 285 328 7,700 -1,900 Descending Memphis Center
Fri 04:04:32 PM 36.0225 -86.9642 63° Northeast 285 328 5,500 -1,350 Descending Memphis Center
Fri 04:05:32 PM 36.0594 -86.8728 63° Northeast 294 338 5,000 -250 Descending Memphis Center
Fri 04:06:32 PM 36.1158 -86.7958 48° Northeast 294 338 5,000 -300 Level Memphis Center
Fri 04:07:32 PM 36.1939 -86.7617 19° North 284 327 4,400 -750 Descending Memphis Center
Fri 04:08:32 PM 36.2681 -86.7328 17° North 279 321 3,500 -950 Descending Memphis Center
Fri 04:09:32 PM 36.2764 -86.6575 82° East 199 229 2,500 -600 Descending Memphis Center
Fri 04:10:32 PM 36.2197 -86.6422 168° South 155 178 2,300 -600 Descending Memphis Center
Fri 04:11:32 PM 36.1744 -86.6647 202° Southwest 156 180 1,300 -800 Descending Memphis Center
Fri 04:12:32 PM 36.1436 -86.6764 197° South 146 168 700 -600 Descending Memphis Center
Fri 04:14:00 PM 36.1245 -86.6782 171° South  Level Estimated
Fri 04:21:00 PM 36.1245 -86.6782 171° South  Level Estimated
Fri 04:22:00 PM 36.1245 -86.6782 171° South  Level Estimated
Fri 04:23:00 PM 36.1245 -86.6782 171° South  Level Estimated
Fri 04:24:00 PM 36.1245 -86.6782 171° South  Level Estimated
Fri 04:25:00 PM 36.1245 -86.6782 171° South  Level Estimated
Fri 04:26:00 PM 36.1245 -86.6782 171° South  Level Estimated
Fri 04:27:00 PM 36.1245 -86.6782 171° South  Level Estimated

Login

Don't have an account? Register now (free) for customized features, flight alerts, and more!